Flight Number: AVA6084 Duration: 2:00
Departure: Dubai Intl Airport (OMDB) at 09:00 Distance: 780 Nm
Arrival: Ashgabat (UTAA) at 11:00 Equipment: A321

Weather Information
Dubai International Airport, United Arab Emirates (OMDB) 25-15N 055-20E 5M Apr 07, 2020 - 01:00 PM EDT / 2020.04.07 1700 UTC
Wind: from the WSW (240 degrees) at 3 MPH (3 KT):0
Visibility: greater than 7 mile(s):0 Temperature: 78 F (26 C) Dew Point: 68 F (20 C) Relative Humidity: 69% Pressure (altimeter): 29.83 in. Hg (1010 hPa)
ob: OMDB 071700Z 24003KT CAVOK 26/20 Q1010 NOSIG cycle: 17
Sunrise: 02:05 Sunset: 14:35 (UTC)

Ashgabat, Turkmenistan (UTAA) 37-59N 058-22E Apr 07, 2020 - 01:00 PM EDT / 2020.04.07 1700 UTC
Wind: Calm:0
Visibility: greater than 7 mile(s):0
Sky conditions: overcast Weather: light rain Temperature: 41 F (5 C) Dew Point: 35 F (2 C) Relative Humidity: 80% Pressure (altimeter): 30.36 in. Hg (1028 hPa)
ob: UTAA 071700Z 00000KT 9999 -RA OVC024 05/02 Q1028 R88/CLRD70 NOSIG cycle: 17
Sunrise: 01:44 Sunset: 14:32 (UTC)

TAF:2020/04/07 18:03 TAF UTAA 071650Z 0718/0818 32016KT 4000 -RA OVC009 SCT020CB TEMPO 0721/0806 02016KT 2000 -RASN OVC003 BECMG 0806/0808 04016KT 6000 BKN020

Previous Pireps for this route
Date Aircraft Flight time Fuel used Landing rate On time
2018-03-10A32102.1014194-125Charter
2019-06-15A32102.0712800-282Yes
(pireps marked green are flown by you)

Route map